createdAt,value
2018-12-04T00:00:49.939Z,995.68
2018-12-04T00:01:49.934Z,995.71
2018-12-04T00:02:49.928Z,995.74
2018-12-04T00:03:49.923Z,995.72
2018-12-04T00:04:49.916Z,995.75
2018-12-04T00:05:49.912Z,995.80
2018-12-04T00:06:49.906Z,995.82
2018-12-04T00:07:49.900Z,995.89
2018-12-04T00:08:49.900Z,995.88
2018-12-04T00:09:49.890Z,995.90
2018-12-04T00:10:49.882Z,995.92
2018-12-04T00:11:49.876Z,995.94
2018-12-04T00:12:49.872Z,995.97
2018-12-04T00:13:49.867Z,996.00
2018-12-04T00:14:49.860Z,996.10
2018-12-04T00:15:49.856Z,996.04
2018-12-04T00:16:50.000Z,996.09
2018-12-04T00:17:49.843Z,996.12
2018-12-04T00:18:49.837Z,996.15
2018-12-04T00:19:49.833Z,996.22
2018-12-04T00:20:49.826Z,996.24
2018-12-04T00:21:49.824Z,996.30
2018-12-04T00:22:49.815Z,996.34
2018-12-04T00:23:49.810Z,996.37
2018-12-04T00:24:49.803Z,996.38
2018-12-04T00:25:49.798Z,996.39
2018-12-04T00:26:49.791Z,996.42
2018-12-04T00:27:49.786Z,996.48
2018-12-04T00:28:49.781Z,996.47
2018-12-04T00:29:49.774Z,996.47
2018-12-04T00:30:49.769Z,996.59
2018-12-04T00:31:49.763Z,996.54
2018-12-04T00:32:49.755Z,996.57
2018-12-04T00:33:49.756Z,996.58
2018-12-04T00:34:49.744Z,996.60
2018-12-04T00:35:49.738Z,996.63
2018-12-04T00:36:49.734Z,996.69
2018-12-04T00:37:49.727Z,996.70
2018-12-04T00:38:49.722Z,996.72
2018-12-04T00:39:49.716Z,996.71
2018-12-04T00:40:49.711Z,996.74
2018-12-04T00:41:49.703Z,996.76
2018-12-04T00:42:49.699Z,996.78
2018-12-04T00:43:49.692Z,996.75
2018-12-04T00:44:49.686Z,996.78
2018-12-04T00:45:49.680Z,996.79
2018-12-04T00:46:49.674Z,996.86
2018-12-04T00:47:49.716Z,996.90
2018-12-04T00:48:49.662Z,996.92
2018-12-04T00:49:49.656Z,996.94
2018-12-04T00:50:49.649Z,996.96
2018-12-04T00:51:49.645Z,997.03
2018-12-04T00:52:49.639Z,997.09
2018-12-04T00:53:49.633Z,997.15
2018-12-04T00:54:49.627Z,997.13
2018-12-04T00:55:49.621Z,997.18
2018-12-04T00:56:49.617Z,997.21
2018-12-04T00:57:49.610Z,997.21
2018-12-04T00:58:49.602Z,997.27
2018-12-04T00:59:49.598Z,997.21
2018-12-04T01:00:49.592Z,997.32
2018-12-04T01:01:49.587Z,997.33
2018-12-04T01:02:49.582Z,997.34
2018-12-04T01:03:49.574Z,997.39
2018-12-04T01:04:49.569Z,997.38
2018-12-04T01:05:49.564Z,997.39
2018-12-04T01:06:49.556Z,997.42
2018-12-04T01:07:49.550Z,997.44
2018-12-04T01:08:49.588Z,997.45
2018-12-04T01:09:49.541Z,997.49
2018-12-04T01:10:49.532Z,997.52
2018-12-04T01:11:49.527Z,997.58
2018-12-04T01:12:49.523Z,997.62
2018-12-04T01:13:49.514Z,997.68
2018-12-04T01:14:49.507Z,997.73
2018-12-04T01:15:49.503Z,997.73
2018-12-04T01:16:49.498Z,997.78
2018-12-04T01:17:49.492Z,997.83
2018-12-04T01:18:49.484Z,997.89
2018-12-04T01:19:49.478Z,997.97
2018-12-04T01:20:49.472Z,998.00
2018-12-04T01:21:49.472Z,998.07
2018-12-04T01:22:49.460Z,998.07
2018-12-04T01:23:49.453Z,998.13
2018-12-04T01:24:49.447Z,998.18
2018-12-04T01:25:49.442Z,998.17
2018-12-04T01:26:49.436Z,998.21
2018-12-04T01:27:49.429Z,998.22
2018-12-04T01:28:49.424Z,998.26
2018-12-04T01:29:49.417Z,998.29
2018-12-04T01:30:49.411Z,998.33
2018-12-04T01:31:49.404Z,998.32
2018-12-04T01:32:49.399Z,998.37
2018-12-04T01:33:49.393Z,998.38
2018-12-04T01:34:49.385Z,998.38
2018-12-04T01:35:49.379Z,998.44
2018-12-04T01:36:49.945Z,998.43
2018-12-04T01:37:49.369Z,998.49
2018-12-04T01:38:49.364Z,998.47
2018-12-04T01:39:49.357Z,998.48
2018-12-04T01:40:49.350Z,998.58
2018-12-04T01:41:49.344Z,998.54
2018-12-04T01:42:49.337Z,998.54
2018-12-04T01:43:49.339Z,998.59
2018-12-04T01:44:49.327Z,998.55
2018-12-04T01:45:49.320Z,998.56
2018-12-04T01:46:49.312Z,998.62
2018-12-04T01:47:49.307Z,998.63
2018-12-04T01:48:49.302Z,998.67
2018-12-04T01:49:49.296Z,998.73
2018-12-04T01:50:49.289Z,998.77
2018-12-04T01:51:49.284Z,998.83
2018-12-04T01:52:49.277Z,998.80
2018-12-04T01:53:49.272Z,998.87
2018-12-04T01:54:49.266Z,998.87
2018-12-04T01:55:49.258Z,998.89
2018-12-04T01:56:49.253Z,998.93
2018-12-04T01:57:49.247Z,998.95
2018-12-04T01:58:49.245Z,998.93
2018-12-04T01:59:49.234Z,998.98
2018-12-04T02:00:49.228Z,999.01
2018-12-04T02:01:49.231Z,999.03
2018-12-04T02:02:49.218Z,999.03
2018-12-04T02:03:49.213Z,999.07
2018-12-04T02:04:49.204Z,999.08
2018-12-04T02:05:49.199Z,999.11
2018-12-04T02:06:49.195Z,999.18
2018-12-04T02:07:49.189Z,999.16
2018-12-04T02:08:49.180Z,999.19
2018-12-04T02:09:49.176Z,999.23
2018-12-04T02:10:49.172Z,999.23
2018-12-04T02:11:49.163Z,999.26
2018-12-04T02:12:49.160Z,999.27
2018-12-04T02:13:49.151Z,999.28
2018-12-04T02:14:49.143Z,999.39
2018-12-04T02:15:49.137Z,999.35
2018-12-04T02:16:49.131Z,999.41
2018-12-04T02:17:49.126Z,999.43
2018-12-04T02:18:49.119Z,999.45
2018-12-04T02:19:49.113Z,999.46
2018-12-04T02:20:49.107Z,999.50
2018-12-04T02:21:49.103Z,999.51
2018-12-04T02:22:49.095Z,999.54
2018-12-04T02:23:49.089Z,999.52
2018-12-04T02:24:49.081Z,999.59
2018-12-04T02:25:49.078Z,999.58
2018-12-04T02:26:49.069Z,999.60
2018-12-04T02:27:49.063Z,999.63
2018-12-04T02:28:49.057Z,999.63
2018-12-04T02:29:49.052Z,999.67
2018-12-04T02:30:49.045Z,999.70
2018-12-04T02:31:49.043Z,999.69
2018-12-04T02:32:49.036Z,999.71
2018-12-04T02:33:49.029Z,999.77
2018-12-04T02:34:49.022Z,999.86
2018-12-04T02:35:49.015Z,999.86
2018-12-04T02:36:49.012Z,999.90
2018-12-04T02:37:49.005Z,999.96
2018-12-04T02:38:49.000Z,999.95
2018-12-04T02:39:48.993Z,1000.00
2018-12-04T02:40:48.986Z,1000.00
2018-12-04T02:41:48.983Z,1000.00
2018-12-04T02:42:48.975Z,1000.06
2018-12-04T02:43:48.968Z,1000.06
2018-12-04T02:44:48.964Z,1000.09
2018-12-04T02:45:48.958Z,1000.09
2018-12-04T02:46:48.950Z,1000.11
2018-12-04T02:47:48.944Z,1000.18
2018-12-04T02:48:48.939Z,1000.15
2018-12-04T02:49:48.933Z,1000.13
2018-12-04T02:50:48.927Z,1000.12
2018-12-04T02:51:48.920Z,1000.17
2018-12-04T02:52:48.917Z,1000.15
2018-12-04T02:53:48.908Z,1000.21
2018-12-04T02:54:49.007Z,1000.22
2018-12-04T02:55:48.899Z,1000.27
2018-12-04T02:56:48.891Z,1000.27
2018-12-04T02:57:48.887Z,1000.27
2018-12-04T02:58:48.878Z,1000.33
2018-12-04T02:59:48.873Z,1000.37
2018-12-04T03:00:48.867Z,1000.35
2018-12-04T03:01:48.863Z,1000.32
2018-12-04T03:02:48.853Z,1000.37
2018-12-04T03:03:48.849Z,1000.37
2018-12-04T03:04:48.847Z,1000.43
2018-12-04T03:05:48.836Z,1000.41
2018-12-04T03:06:48.843Z,1000.39
2018-12-04T03:07:48.825Z,1000.39
2018-12-04T03:08:48.819Z,1000.42
2018-12-04T03:09:48.812Z,1000.47
2018-12-04T03:10:48.806Z,1000.46
2018-12-04T03:11:48.801Z,1000.47
2018-12-04T03:12:48.797Z,1000.40
2018-12-04T03:13:48.790Z,1000.44
2018-12-04T03:14:48.783Z,1000.51
2018-12-04T03:15:48.780Z,1000.48
2018-12-04T03:16:48.771Z,1000.59
2018-12-04T03:17:48.766Z,1000.58
2018-12-04T03:18:48.759Z,1000.65
2018-12-04T03:19:48.753Z,1000.65
2018-12-04T03:20:48.749Z,1000.68
2018-12-04T03:21:48.742Z,1000.67
2018-12-04T03:22:48.736Z,1000.68
2018-12-04T03:23:48.731Z,1000.73
2018-12-04T03:24:48.724Z,1000.74
2018-12-04T03:25:48.719Z,1000.73
2018-12-04T03:26:48.715Z,1000.81
2018-12-04T03:27:48.706Z,1000.79
2018-12-04T03:28:48.699Z,1000.78
2018-12-04T03:29:48.701Z,1000.80
2018-12-04T03:30:48.688Z,1000.79
2018-12-04T03:31:48.683Z,1000.81
2018-12-04T03:32:48.676Z,1000.85
2018-12-04T03:33:48.670Z,1000.92
2018-12-04T03:34:48.663Z,1000.89
2018-12-04T03:35:48.658Z,1000.94
2018-12-04T03:36:48.651Z,1000.96
2018-12-04T03:37:48.646Z,1000.95
2018-12-04T03:38:48.638Z,1000.97
2018-12-04T03:39:48.638Z,1000.97
2018-12-04T03:40:48.627Z,1001.02
2018-12-04T03:41:48.620Z,1001.04
2018-12-04T03:42:48.617Z,1001.02
2018-12-04T03:43:48.611Z,1001.03
2018-12-04T03:44:48.604Z,1001.05
2018-12-04T03:45:48.597Z,1001.03
2018-12-04T03:46:48.590Z,1001.07
2018-12-04T03:47:48.585Z,1001.08
2018-12-04T03:48:48.577Z,1001.09
2018-12-04T03:49:48.572Z,1001.12
2018-12-04T03:50:48.567Z,1001.14
2018-12-04T03:51:48.567Z,1001.10
2018-12-04T03:52:48.556Z,1001.13
2018-12-04T03:53:48.553Z,1001.15
2018-12-04T03:54:48.539Z,1001.20
2018-12-04T03:55:48.535Z,1001.19
2018-12-04T03:56:48.529Z,1001.19
2018-12-04T03:57:48.522Z,1001.18
2018-12-04T03:58:48.514Z,1001.19
2018-12-04T03:59:48.513Z,1001.23
2018-12-04T04:00:48.504Z,1001.19
2018-12-04T04:01:48.498Z,1001.20
2018-12-04T04:02:48.490Z,1001.26
2018-12-04T04:03:48.485Z,1001.31
2018-12-04T04:04:48.477Z,1001.28
2018-12-04T04:05:48.474Z,1001.40
2018-12-04T04:06:48.464Z,1001.30
2018-12-04T04:07:48.459Z,1001.34
2018-12-04T04:08:48.452Z,1001.36
2018-12-04T04:09:48.447Z,1001.37
2018-12-04T04:10:48.439Z,1001.40
2018-12-04T04:11:48.431Z,1001.38
2018-12-04T04:12:48.427Z,1001.39
2018-12-04T04:13:48.420Z,1001.44
2018-12-04T04:14:48.413Z,1001.44
2018-12-04T04:15:48.407Z,1001.52
2018-12-04T04:16:48.400Z,1001.50
2018-12-04T04:17:48.395Z,1001.53
2018-12-04T04:18:48.386Z,1001.55
2018-12-04T04:19:48.384Z,1001.58
2018-12-04T04:20:48.724Z,1001.61
2018-12-04T04:21:48.371Z,1001.64
2018-12-04T04:22:48.361Z,1001.66
2018-12-04T04:23:48.355Z,1001.68
2018-12-04T04:24:48.350Z,1001.75
2018-12-04T04:25:48.342Z,1001.74
2018-12-04T04:26:48.334Z,1001.81
2018-12-04T04:27:48.329Z,1001.87
2018-12-04T04:28:48.323Z,1001.86
2018-12-04T04:29:48.317Z,1001.92
2018-12-04T04:30:48.308Z,1001.89
2018-12-04T04:31:48.303Z,1001.90
2018-12-04T04:32:48.296Z,1001.89
2018-12-04T04:33:48.291Z,1001.87
2018-12-04T04:34:48.283Z,1001.88
2018-12-04T04:35:48.275Z,1001.91
2018-12-04T04:36:48.270Z,1001.90
2018-12-04T04:37:48.265Z,1001.90
2018-12-04T04:38:48.259Z,1001.99
2018-12-04T04:39:48.250Z,1001.97
2018-12-04T04:40:48.243Z,1001.95
2018-12-04T04:41:48.237Z,1002.00
2018-12-04T04:42:48.231Z,1002.01
2018-12-04T04:43:48.223Z,1002.03
2018-12-04T04:44:48.217Z,1002.04
2018-12-04T04:45:48.211Z,1002.08
2018-12-04T04:46:48.205Z,1002.08
2018-12-04T04:47:48.196Z,1002.08
2018-12-04T04:48:48.192Z,1002.08
2018-12-04T04:49:48.190Z,1002.13
2018-12-04T04:50:48.179Z,1002.11
2018-12-04T04:51:48.170Z,1002.17
2018-12-04T04:52:48.165Z,1002.18
2018-12-04T04:53:48.157Z,1002.23
2018-12-04T04:54:48.150Z,1002.18
2018-12-04T04:55:48.142Z,1002.23
2018-12-04T04:56:48.135Z,1002.27
2018-12-04T04:57:48.129Z,1002.30
2018-12-04T04:58:48.124Z,1002.33
2018-12-04T04:59:48.116Z,1002.33
2018-12-04T05:00:48.109Z,1002.33
2018-12-04T05:01:48.103Z,1002.37
2018-12-04T05:02:48.095Z,1002.37
2018-12-04T05:03:48.091Z,1002.43
2018-12-04T05:04:48.080Z,1002.45
2018-12-04T05:05:48.075Z,1002.49
2018-12-04T05:06:48.070Z,1002.55
2018-12-04T05:07:48.061Z,1002.57
2018-12-04T05:08:48.054Z,1002.60
2018-12-04T05:09:48.050Z,1002.58
2018-12-04T05:10:48.039Z,1002.61
2018-12-04T05:11:48.034Z,1002.62
2018-12-04T05:12:48.027Z,1002.62
2018-12-04T05:13:48.021Z,1002.63
2018-12-04T05:14:48.014Z,1002.63
2018-12-04T05:15:48.008Z,1002.68
2018-12-04T05:16:47.999Z,1002.69
2018-12-04T05:17:47.994Z,1002.76
2018-12-04T05:18:47.986Z,1002.78
2018-12-04T05:19:47.979Z,1002.79
2018-12-04T05:20:47.971Z,1002.78
2018-12-04T05:21:47.965Z,1002.78
2018-12-04T05:22:47.959Z,1002.82
2018-12-04T05:23:47.952Z,1002.85
2018-12-04T05:24:47.943Z,1002.88
2018-12-04T05:25:47.940Z,1002.96
2018-12-04T05:26:47.930Z,1002.89
2018-12-04T05:27:47.923Z,1002.91
2018-12-04T05:28:47.916Z,1002.95
2018-12-04T05:29:47.909Z,1002.97
2018-12-04T05:30:47.902Z,1003.02
2018-12-04T05:31:47.895Z,1003.01
2018-12-04T05:32:47.888Z,1003.05
2018-12-04T05:33:47.883Z,1003.09
2018-12-04T05:34:47.874Z,1003.07
2018-12-04T05:35:47.867Z,1003.12
2018-12-04T05:36:47.861Z,1003.12
2018-12-04T05:37:47.853Z,1003.09
2018-12-04T05:38:47.845Z,1003.15
2018-12-04T05:39:47.839Z,1003.19
2018-12-04T05:40:47.832Z,1003.20
2018-12-04T05:41:47.825Z,1003.23
2018-12-04T05:42:47.817Z,1003.25
2018-12-04T05:43:47.811Z,1003.24
2018-12-04T05:44:47.805Z,1003.28
2018-12-04T05:45:47.797Z,1003.35
2018-12-04T05:46:47.789Z,1003.33
2018-12-04T05:47:47.785Z,1003.32
2018-12-04T05:48:47.775Z,1003.40
2018-12-04T05:49:47.768Z,1003.42
2018-12-04T05:50:47.761Z,1003.44
2018-12-04T05:51:47.755Z,1003.46
2018-12-04T05:52:47.747Z,1003.51
2018-12-04T05:53:47.741Z,1003.53
2018-12-04T05:54:47.732Z,1003.55
2018-12-04T05:55:47.726Z,1003.51
2018-12-04T05:56:47.721Z,1003.54
2018-12-04T05:57:47.714Z,1003.57
2018-12-04T05:58:47.705Z,1003.63
2018-12-04T05:59:47.699Z,1003.63
2018-12-04T06:00:47.690Z,1003.68
2018-12-04T06:01:47.685Z,1003.72
2018-12-04T06:02:47.676Z,1003.73
2018-12-04T06:03:47.668Z,1003.75
2018-12-04T06:04:47.663Z,1003.80
2018-12-04T06:05:47.655Z,1003.76
2018-12-04T06:06:47.648Z,1003.75
2018-12-04T06:07:47.640Z,1003.80
2018-12-04T06:08:47.636Z,1003.81
2018-12-04T06:09:47.627Z,1003.80
2018-12-04T06:10:48.762Z,1003.84
2018-12-04T06:11:47.613Z,1003.89
2018-12-04T06:12:47.606Z,1003.91
2018-12-04T06:13:47.600Z,1003.94
2018-12-04T06:14:47.591Z,1003.98
2018-12-04T06:15:47.583Z,1004.02
2018-12-04T06:16:47.577Z,1004.06
2018-12-04T06:17:47.574Z,1004.07
2018-12-04T06:18:47.562Z,1004.06
2018-12-04T06:19:47.557Z,1004.10
2018-12-04T06:20:47.553Z,1004.15
2018-12-04T06:21:47.541Z,1004.17
2018-12-04T06:22:47.533Z,1004.14
2018-12-04T06:23:47.527Z,1004.19
2018-12-04T06:24:47.523Z,1004.19
2018-12-04T06:25:47.512Z,1004.22
2018-12-04T06:26:47.509Z,1004.28
2018-12-04T06:27:47.497Z,1004.32
2018-12-04T06:28:47.493Z,1004.36
2018-12-04T06:29:47.483Z,1004.37
2018-12-04T06:30:47.475Z,1004.38
2018-12-04T06:31:47.470Z,1004.43
2018-12-04T06:32:47.462Z,1004.43
2018-12-04T06:33:47.455Z,1004.44
2018-12-04T06:34:47.452Z,1004.49
2018-12-04T06:35:47.443Z,1004.52
2018-12-04T06:36:47.433Z,1004.55
2018-12-04T06:37:47.426Z,1004.57
2018-12-04T06:38:47.418Z,1004.56
2018-12-04T06:39:47.416Z,1004.59
2018-12-04T06:40:47.404Z,1004.56
2018-12-04T06:41:47.400Z,1004.64
2018-12-04T06:42:47.391Z,1004.66
2018-12-04T06:43:47.383Z,1004.68
2018-12-04T06:44:47.376Z,1004.70
2018-12-04T06:45:47.370Z,1004.67
2018-12-04T06:46:47.362Z,1004.71
2018-12-04T06:47:47.359Z,1004.77
2018-12-04T06:48:47.348Z,1004.70
2018-12-04T06:49:47.341Z,1004.73
2018-12-04T06:50:47.333Z,1004.76
2018-12-04T06:51:47.326Z,1004.81
2018-12-04T06:52:47.323Z,1004.84
2018-12-04T06:53:47.313Z,1004.87
2018-12-04T06:54:47.307Z,1004.92
2018-12-04T06:55:47.298Z,1004.92
2018-12-04T06:56:47.290Z,1004.95
2018-12-04T06:57:47.285Z,1004.98
2018-12-04T06:58:47.276Z,1005.04
2018-12-04T06:59:47.268Z,1005.07
2018-12-04T07:00:47.268Z,1005.11
2018-12-04T07:01:47.258Z,1005.13
2018-12-04T07:02:47.246Z,1005.20
2018-12-04T07:03:47.239Z,1005.22
2018-12-04T07:04:47.232Z,1005.17
2018-12-04T07:05:47.225Z,1005.20
2018-12-04T07:06:47.219Z,1005.22
2018-12-04T07:07:47.210Z,1005.27
2018-12-04T07:08:47.206Z,1005.28
2018-12-04T07:09:47.195Z,1005.32
2018-12-04T07:10:47.187Z,1005.30
2018-12-04T07:11:47.180Z,1005.36
2018-12-04T07:12:47.174Z,1005.35
2018-12-04T07:13:47.167Z,1005.40
2018-12-04T07:14:47.158Z,1005.46
2018-12-04T07:15:47.151Z,1005.48
2018-12-04T07:16:47.144Z,1005.51
2018-12-04T07:17:47.138Z,1005.54
2018-12-04T07:18:47.130Z,1005.57
2018-12-04T07:19:47.123Z,1005.61
2018-12-04T07:20:47.116Z,1005.58
2018-12-04T07:21:47.109Z,1005.63
2018-12-04T07:22:47.100Z,1005.68
2018-12-04T07:23:47.094Z,1005.69
2018-12-04T07:24:47.086Z,1005.75
2018-12-04T07:25:47.078Z,1005.78
2018-12-04T07:26:47.069Z,1005.80
2018-12-04T07:27:47.063Z,1005.81
2018-12-04T07:28:47.056Z,1005.82
2018-12-04T07:29:47.051Z,1005.85
2018-12-04T07:30:47.046Z,1005.87
2018-12-04T07:31:47.040Z,1005.88
2018-12-04T07:32:47.027Z,1005.88
2018-12-04T07:33:47.027Z,1005.87
2018-12-04T07:34:47.012Z,1005.90
2018-12-04T07:35:47.008Z,1005.90
2018-12-04T07:36:46.998Z,1005.88
2018-12-04T07:37:46.991Z,1005.89
2018-12-04T07:38:46.983Z,1005.95
2018-12-04T07:39:46.978Z,1005.94
2018-12-04T07:40:46.968Z,1006.01
2018-12-04T07:41:46.961Z,1006.06
2018-12-04T07:42:46.961Z,1006.03
2018-12-04T07:43:46.946Z,1006.06
2018-12-04T07:44:46.940Z,1006.06
2018-12-04T07:45:46.932Z,1006.06
2018-12-04T07:46:46.923Z,1006.05
2018-12-04T07:47:46.917Z,1006.09
2018-12-04T07:48:46.910Z,1006.10
2018-12-04T07:49:46.903Z,1006.15
2018-12-04T07:50:46.896Z,1006.15
2018-12-04T07:51:46.888Z,1006.20
2018-12-04T07:52:46.880Z,1006.20
2018-12-04T07:53:46.875Z,1006.28
2018-12-04T07:54:46.867Z,1006.30
2018-12-04T07:55:46.857Z,1006.34
2018-12-04T07:56:46.851Z,1006.33
2018-12-04T07:57:46.842Z,1006.37
2018-12-04T07:58:46.834Z,1006.39
2018-12-04T07:59:46.827Z,1006.41
2018-12-04T08:00:46.822Z,1006.40
2018-12-04T08:01:46.814Z,1006.45
2018-12-04T08:02:46.804Z,1006.45
2018-12-04T08:03:46.799Z,1006.50
2018-12-04T08:04:46.792Z,1006.50
2018-12-04T08:05:46.784Z,1006.51
2018-12-04T08:06:46.776Z,1006.52
2018-12-04T08:07:46.767Z,1006.54
2018-12-04T08:08:46.762Z,1006.55
2018-12-04T08:09:46.754Z,1006.57
2018-12-04T08:10:46.747Z,1006.62
2018-12-04T08:11:46.740Z,1006.64
2018-12-04T08:12:46.732Z,1006.63
2018-12-04T08:13:46.724Z,1006.73
2018-12-04T08:14:46.718Z,1006.81
2018-12-04T08:15:46.717Z,1006.81
2018-12-04T08:16:46.702Z,1006.84
2018-12-04T08:17:46.699Z,1006.88
2018-12-04T08:18:46.687Z,1006.93
2018-12-04T08:19:46.680Z,1006.96
2018-12-04T08:20:46.673Z,1006.99
2018-12-04T08:21:46.666Z,1007.01
2018-12-04T08:22:46.660Z,1007.06
2018-12-04T08:23:46.651Z,1007.08
2018-12-04T08:24:46.644Z,1007.06
2018-12-04T08:25:46.640Z,1007.11
2018-12-04T08:26:46.627Z,1007.14
2018-12-04T08:27:46.622Z,1007.16
2018-12-04T08:28:46.614Z,1007.22
2018-12-04T08:29:46.607Z,1007.25
2018-12-04T08:30:46.598Z,1007.29
2018-12-04T08:31:46.591Z,1007.30
2018-12-04T08:32:46.585Z,1007.29
2018-12-04T08:33:46.577Z,1007.30
2018-12-04T08:34:46.569Z,1007.28
2018-12-04T08:35:46.563Z,1007.30
2018-12-04T08:36:46.555Z,1007.29
2018-12-04T08:37:46.548Z,1007.33
2018-12-04T08:38:46.541Z,1007.31
2018-12-04T08:39:46.533Z,1007.35
2018-12-04T08:40:46.525Z,1007.39
2018-12-04T08:41:46.518Z,1007.39
2018-12-04T08:42:46.513Z,1007.42
2018-12-04T08:43:46.511Z,1007.44
2018-12-04T08:44:46.499Z,1007.44
2018-12-04T08:45:46.491Z,1007.49
2018-12-04T08:46:46.482Z,1007.46
2018-12-04T08:47:46.476Z,1007.54
2018-12-04T08:48:46.469Z,1007.50
2018-12-04T08:49:46.462Z,1007.51
2018-12-04T08:50:46.454Z,1007.56
2018-12-04T08:51:46.447Z,1007.56
2018-12-04T08:52:46.442Z,1007.57
2018-12-04T08:53:46.432Z,1007.58
2018-12-04T08:54:46.425Z,1007.63
2018-12-04T08:55:46.419Z,1007.64
2018-12-04T08:56:46.416Z,1007.67
2018-12-04T08:57:46.404Z,1007.70
2018-12-04T08:58:46.397Z,1007.72
2018-12-04T08:59:46.391Z,1007.76
2018-12-04T09:00:46.383Z,1007.79
2018-12-04T09:01:46.376Z,1007.80
2018-12-04T09:02:46.370Z,1007.81
2018-12-04T09:03:46.359Z,1007.82
2018-12-04T09:04:46.354Z,1007.85
2018-12-04T09:05:46.345Z,1007.83
2018-12-04T09:06:46.366Z,1007.90
2018-12-04T09:07:46.332Z,1007.91
2018-12-04T09:08:46.342Z,1007.92
2018-12-04T09:09:46.320Z,1008.00
2018-12-04T09:10:46.312Z,1008.03
2018-12-04T09:11:46.305Z,1008.02
2018-12-04T09:12:46.297Z,1008.05
2018-12-04T09:13:46.290Z,1008.09
2018-12-04T09:14:46.284Z,1008.10
2018-12-04T09:15:46.275Z,1008.13
2018-12-04T09:16:46.797Z,1008.17
2018-12-04T09:17:46.262Z,1008.16
2018-12-04T09:18:46.296Z,1008.19
2018-12-04T09:19:46.281Z,1008.16
2018-12-04T09:20:46.262Z,1008.21
2018-12-04T09:21:46.264Z,1008.31
2018-12-04T09:22:46.274Z,1008.27
2018-12-04T09:23:46.222Z,1008.31
2018-12-04T09:24:46.265Z,1008.36
2018-12-04T09:25:46.206Z,1008.41
2018-12-04T09:26:46.197Z,1008.42
2018-12-04T09:27:46.239Z,1008.46
2018-12-04T09:28:46.185Z,1008.51
2018-12-04T09:29:46.184Z,1008.52
2018-12-04T09:30:46.170Z,1008.54
2018-12-04T09:31:46.166Z,1008.58
2018-12-04T09:32:46.156Z,1008.66
2018-12-04T09:33:46.151Z,1008.65
2018-12-04T09:34:46.143Z,1008.74
2018-12-04T09:35:46.135Z,1008.77
2018-12-04T09:36:46.129Z,1008.80
2018-12-04T09:37:46.124Z,1008.80
2018-12-04T09:38:46.115Z,1008.78
2018-12-04T09:39:46.109Z,1008.82
2018-12-04T09:40:46.104Z,1008.85
2018-12-04T09:41:46.097Z,1008.88
2018-12-04T09:42:46.091Z,1008.89
2018-12-04T09:43:46.085Z,1008.91
2018-12-04T09:44:46.077Z,1008.97
2018-12-04T09:45:46.070Z,1008.96
2018-12-04T09:46:46.063Z,1009.11
2018-12-04T09:47:46.057Z,1009.21
2018-12-04T09:48:46.051Z,1009.18
2018-12-04T09:49:46.044Z,1009.14
2018-12-04T09:50:46.037Z,1009.10
2018-12-04T09:51:46.030Z,1009.12
2018-12-04T09:52:46.024Z,1009.22
2018-12-04T09:53:51.801Z,1009.24
2018-12-04T09:54:46.014Z,1009.24
2018-12-04T09:55:46.004Z,1009.18
2018-12-04T09:56:45.997Z,1009.22
2018-12-04T09:57:45.993Z,1009.13
2018-12-04T09:58:45.988Z,1009.22
2018-12-04T09:59:45.979Z,1009.21
2018-12-04T10:00:45.972Z,1009.23
2018-12-04T10:01:45.968Z,1009.23
2018-12-04T10:02:45.960Z,1009.32
2018-12-04T10:03:45.953Z,1009.27
2018-12-04T10:04:45.948Z,1009.36
2018-12-04T10:05:45.941Z,1009.37
2018-12-04T10:06:45.933Z,1009.35
2018-12-04T10:07:45.928Z,1009.44
2018-12-04T10:08:45.922Z,1009.41
2018-12-04T10:09:45.917Z,1009.39
2018-12-04T10:10:45.912Z,1009.40
2018-12-04T10:11:45.904Z,1009.42
2018-12-04T10:12:45.917Z,1009.39
2018-12-04T10:13:45.893Z,1009.42
2018-12-04T10:14:45.889Z,1009.44
2018-12-04T10:15:45.878Z,1009.44
2018-12-04T10:16:45.873Z,1009.41
2018-12-04T10:17:45.867Z,1009.42
2018-12-04T10:18:47.808Z,1009.36
2018-12-04T10:19:45.853Z,1009.36
2018-12-04T10:20:45.846Z,1009.33
2018-12-04T10:21:45.839Z,1009.33
2018-12-04T10:22:45.833Z,1009.40
2018-12-04T10:23:45.827Z,1009.35
2018-12-04T10:24:45.821Z,1009.38
2018-12-04T10:25:45.816Z,1009.40
2018-12-04T10:26:45.807Z,1009.50
2018-12-04T10:27:45.801Z,1009.50
2018-12-04T10:28:45.795Z,1009.53
2018-12-04T10:29:45.789Z,1009.55
2018-12-04T10:30:45.784Z,1009.58
2018-12-04T10:31:45.776Z,1009.62
2018-12-04T10:32:45.770Z,1009.62
2018-12-04T10:33:45.765Z,1009.74
2018-12-04T10:34:45.757Z,1009.94
2018-12-04T10:35:45.753Z,1010.02
2018-12-04T10:36:45.751Z,1010.15
2018-12-04T10:37:45.742Z,1010.17
2018-12-04T10:38:45.734Z,1010.17
2018-12-04T10:39:45.729Z,1010.20
2018-12-04T10:40:45.725Z,1010.10
2018-12-04T10:41:45.720Z,1010.08
2018-12-04T10:42:45.715Z,1010.13
2018-12-04T10:43:45.710Z,1010.22
2018-12-04T10:44:45.705Z,1010.17
2018-12-04T10:45:45.701Z,1010.26
2018-12-04T10:46:45.694Z,1010.35
2018-12-04T10:47:45.691Z,1010.43
2018-12-04T10:48:45.687Z,1010.44
2018-12-04T10:49:45.683Z,1010.44
2018-12-04T10:50:45.678Z,1010.50
2018-12-04T10:51:45.675Z,1010.47
2018-12-04T10:52:45.669Z,1010.52
2018-12-04T10:53:45.667Z,1010.50
2018-12-04T10:54:45.661Z,1010.51
2018-12-04T10:55:45.659Z,1010.40
2018-12-04T10:56:45.655Z,1010.46
2018-12-04T10:57:45.652Z,1010.44
2018-12-04T10:58:45.649Z,1010.36
2018-12-04T10:59:45.645Z,1010.46
2018-12-04T11:00:45.642Z,1010.40
2018-12-04T11:01:45.641Z,1010.38
2018-12-04T11:02:45.635Z,1010.31
2018-12-04T11:03:45.635Z,1010.30
2018-12-04T11:04:45.630Z,1010.39
2018-12-04T11:05:45.627Z,1010.35
2018-12-04T11:06:45.623Z,1010.30
2018-12-04T11:07:45.620Z,1010.34
2018-12-04T11:08:45.619Z,1010.45
2018-12-04T11:09:45.615Z,1010.42
2018-12-04T11:10:45.611Z,1010.40
2018-12-04T11:11:45.608Z,1010.28
2018-12-04T11:12:45.608Z,1010.25
2018-12-04T11:13:45.604Z,1010.30
2018-12-04T11:14:45.598Z,1010.41
2018-12-04T11:15:45.596Z,1010.49
2018-12-04T11:16:45.591Z,1010.43
2018-12-04T11:17:45.588Z,1010.45
2018-12-04T11:18:45.583Z,1010.40
2018-12-04T11:19:45.594Z,1010.41
2018-12-04T11:20:45.580Z,1010.41
2018-12-04T11:21:45.574Z,1010.45
2018-12-04T11:22:45.573Z,1010.50
2018-12-04T11:23:45.567Z,1010.48
2018-12-04T11:24:45.565Z,1010.39
2018-12-04T11:25:45.562Z,1010.21
2018-12-04T11:26:45.556Z,1010.21
2018-12-04T11:27:45.553Z,1010.29
2018-12-04T11:28:45.550Z,1010.30
2018-12-04T11:29:45.548Z,1010.27
2018-12-04T11:30:45.543Z,1010.43
2018-12-04T11:31:45.539Z,1010.51
2018-12-04T11:32:45.534Z,1010.54
2018-12-04T11:33:45.532Z,1010.65
2018-12-04T11:34:45.535Z,1010.54
2018-12-04T11:35:45.525Z,1010.55
2018-12-04T11:36:45.521Z,1010.49
2018-12-04T11:37:45.519Z,1010.42
2018-12-04T11:38:45.511Z,1010.57
2018-12-04T11:39:45.507Z,1010.65
2018-12-04T11:40:45.503Z,1010.71
2018-12-04T11:41:45.500Z,1010.74
2018-12-04T11:42:45.497Z,1010.79
2018-12-04T11:43:45.491Z,1010.74
2018-12-04T11:44:45.488Z,1010.57
2018-12-04T11:45:45.484Z,1010.45
2018-12-04T11:46:45.476Z,1010.34
2018-12-04T11:47:45.473Z,1010.32
2018-12-04T11:48:45.473Z,1010.36
2018-12-04T11:49:45.465Z,1010.38
2018-12-04T11:50:45.460Z,1010.43
2018-12-04T11:51:45.455Z,1010.42
2018-12-04T11:52:45.450Z,1010.43
2018-12-04T11:53:45.446Z,1010.47
2018-12-04T11:54:45.444Z,1010.43
2018-12-04T11:55:45.438Z,1010.49
2018-12-04T11:56:45.436Z,1010.48
2018-12-04T11:57:45.429Z,1010.47
2018-12-04T11:58:45.424Z,1010.51
2018-12-04T11:59:45.419Z,1010.47
2018-12-04T12:00:45.414Z,1010.59
2018-12-04T12:01:45.409Z,1010.59
2018-12-04T12:02:45.403Z,1010.56
2018-12-04T12:03:45.400Z,1010.58
2018-12-04T12:04:45.395Z,1010.59
2018-12-04T12:05:45.392Z,1010.59
2018-12-04T12:06:45.387Z,1010.66
2018-12-04T12:07:45.380Z,1010.69
2018-12-04T12:08:45.374Z,1010.69
2018-12-04T12:09:45.370Z,1010.68
2018-12-04T12:10:45.364Z,1010.68